San Antonio, TX

9:58 AM CST on January 30, 2015 (GMT -0600)
Monticello Park | Change Station
CLOSE
Current Station
Personal Weather Station
Location: San Antonio, TX
Elevation: 751 ft
Nearby Weather Stations

Elev 751 ft 29.47 °N, 98.53 °W | Updated 2 minutes ago

Mostly Cloudy
Mostly Cloudy
54.1 °F
Feels Like 54.1 °F
N
7.8
Wind Variable Wind from NNE

Today
High -- | Low -- °F
--% Chance of Precip.
Yesterday
High -- | Low -- °F
Precip. -- in
7:24 AM 6:10 PM
Waxing Gibbous, 83% visible
Pressure 30.38 in
Visibility 10.0 miles
Clouds Scattered Clouds 5500 ft
Scattered Clouds 14000 ft
Overcast 25000 ft
Dew Point 37 °F
Humidity 52%
Rainfall 0.00 in
Snow Depth Not available.
UV 1 out of 12
Pollen 8.20 out of 12
Air Quality Not available.
Flu Activity Not available.
METAR KSAT 301551Z 03011KT 10SM SCT055 SCT140 OVC250 12/02 A3042 RMK AO2 SLP288 T01170017

More Conditions Fewer Conditions

Pressure 30.38 in
Visibility 10.0 miles
Clouds Scattered Clouds 5500 ft
Scattered Clouds 14000 ft
Overcast 25000 ft
Dew Point 37 °F
Humidity 52%
Rainfall 0.00 in
Snow Depth Not available.
UV 1 out of 12
Pollen 8.20 out of 12
Air Quality Not available.
Flu Activity Not available.
METAR KSAT 301551Z 03011KT 10SM SCT055 SCT140 OVC250 12/02 A3042 RMK AO2 SLP288 T01170017

More Conditions Fewer Conditions

10-Day Weather Forecast

Almanac

Astronomy

Jan. 30, 2015 Rise Set
Actual Time
Civil Twilight
Nautical Twilight
Astronomical Twilight
Moon
Length of Visible Light
Length of Day
Tomorrow will be .
, % of the Moon is Illuminated

Today's Extremes

State Highs State Lows

Community

WunderPhotos

Upload Photos

1,791,791 photos uploaded!

WunderBlogs® & News

Nearby

Air Quality

  Air Quality AQ Index Pollutant
Not available.

Snow Depth

Station Depth Elevation

Earthquake Activity

City Distance Mag. Time & Date
Minimum magnitude displayed is 2.5.

Coastal Water Temperatures

Place Temperature

Nearby Weather Stations